Main page
METAR-TAF:

METAR-TAF

Airports :

Benbecula, Scotland

Benbecula Airport

latitude: 57-28N, longitude: 007-22W, elevation: 6 m

Current weather observation

The report was made 24 minutes ago, at 02:20 UTC
Wind 3 kt from the East/Northeast
Temperature 12°C
Humidity 94%
Pressure 1019 hPa
Visibility 10 km or more

METAR: EGPL 240220Z AUTO 06003KT 9999 NCD 12/11 Q1019

Time: 03:44 (02:44 UTC)

Forecast

The report was made 41 minutes ago, at 02:03 UTC
Forecast valid from 24 at 03 UTC to 24 at 12 UTC
Wind 7 kt from the Northeast
Visibility 10 km or more
Few clouds at a height of 2000 ft
Probability 30% :
Temporary
from 24 at 03 UTC to 24 at 09 UTC
Broken clouds at a height of 800 ft

TAF: EGPL 240203Z 2403/2412 05007KT 9999 FEW020 PROB30 TEMPO 2403/2409 BKN008

Weather observations and forecasts of more than 4000 airports (METAR and TAF reports).

The available stations are represented by yellow and red dots on the map.

Hover mouse over dot to see the name of the station.

Then click to see weather observations and forecasts.

To change the map : click on the green buttons with a black cross to zoom in, on the green button with a dash to zoom out, or on the green arrows for adjacent maps.


METAR-TAF: